createdAt,value
2022-10-19T00:00:49.185Z,51.93
2022-10-19T00:03:20.710Z,52.14
2022-10-19T00:05:51.828Z,52.22
2022-10-19T00:08:19.103Z,52.14
2022-10-19T00:10:46.375Z,52.02
2022-10-19T00:13:13.599Z,52.01
2022-10-19T00:15:41.639Z,52.25
2022-10-19T00:18:09.547Z,52.21
2022-10-19T00:20:37.497Z,52.25
2022-10-19T00:23:06.264Z,52.36
2022-10-19T00:25:33.571Z,52.29
2022-10-19T00:28:01.289Z,52.45
2022-10-19T00:30:28.679Z,52.26
2022-10-19T00:32:55.984Z,52.51
2022-10-19T00:35:23.300Z,52.41
2022-10-19T00:37:51.821Z,52.35
2022-10-19T00:40:20.486Z,52.29
2022-10-19T00:42:53.733Z,52.54
2022-10-19T00:45:20.970Z,52.60
2022-10-19T00:47:48.444Z,52.65
2022-10-19T00:50:17.322Z,52.77
2022-10-19T00:52:44.810Z,52.77
2022-10-19T00:55:13.384Z,52.88
2022-10-19T00:57:42.138Z,53.11
2022-10-19T01:00:10.616Z,53.42
2022-10-19T01:02:38.184Z,53.30
2022-10-19T01:05:07.618Z,53.06
2022-10-19T01:07:35.285Z,53.13
2022-10-19T01:10:03.471Z,53.04
2022-10-19T01:12:52.590Z,53.16
2022-10-19T01:15:32.517Z,53.26
2022-10-19T01:18:16.359Z,53.37
2022-10-19T01:21:19.337Z,53.46
2022-10-19T01:24:37.125Z,53.50
2022-10-19T01:27:53.201Z,53.70
2022-10-19T01:30:42.242Z,53.74
2022-10-19T01:33:27.686Z,53.70
2022-10-19T01:36:09.242Z,53.81
2022-10-19T01:38:46.046Z,53.89
2022-10-19T01:41:19.954Z,53.75
2022-10-19T01:43:57.126Z,53.54
2022-10-19T01:46:34.128Z,53.72
2022-10-19T01:49:13.700Z,53.71
2022-10-19T01:51:49.445Z,53.72
2022-10-19T01:54:21.380Z,53.84
2022-10-19T01:56:52.057Z,53.80
2022-10-19T01:59:22.551Z,53.76
2022-10-19T02:01:54.895Z,53.55
2022-10-19T02:04:24.810Z,53.67
2022-10-19T02:06:54.943Z,53.58
2022-10-19T02:09:22.910Z,53.53
2022-10-19T02:11:57.272Z,53.55
2022-10-19T02:14:32.643Z,53.53
2022-10-19T02:17:08.073Z,53.46
2022-10-19T02:19:36.398Z,53.61
2022-10-19T02:22:04.132Z,53.54
2022-10-19T02:24:31.555Z,53.59
2022-10-19T02:27:00.665Z,53.64
2022-10-19T02:29:28.530Z,53.65
2022-10-19T02:31:55.944Z,53.69
2022-10-19T02:34:26.298Z,53.59
2022-10-19T02:36:54.302Z,53.86
2022-10-19T02:39:22.301Z,53.90
2022-10-19T02:41:57.306Z,53.83
2022-10-19T02:44:31.197Z,53.94
2022-10-19T02:47:06.526Z,54.04
2022-10-19T02:49:37.781Z,53.89
2022-10-19T02:52:07.477Z,54.02
2022-10-19T02:54:35.158Z,54.11
2022-10-19T02:57:11.906Z,53.65
2022-10-19T02:59:39.123Z,53.81
2022-10-19T03:02:06.382Z,53.92
2022-10-19T03:04:35.483Z,53.69
2022-10-19T03:07:02.938Z,54.02
2022-10-19T03:09:30.291Z,53.47
2022-10-19T03:11:57.541Z,53.65
2022-10-19T03:14:24.777Z,53.45
2022-10-19T03:16:52.108Z,53.51
2022-10-19T03:19:19.365Z,53.41
2022-10-19T03:21:47.950Z,53.38
2022-10-19T03:24:15.324Z,53.55
2022-10-19T03:26:42.584Z,53.55
2022-10-19T03:29:09.953Z,53.56
2022-10-19T03:31:37.238Z,53.68
2022-10-19T03:34:04.748Z,53.51
2022-10-19T03:36:34.853Z,53.57
2022-10-19T03:39:07.938Z,53.44
2022-10-19T03:41:37.280Z,53.40
2022-10-19T03:44:05.434Z,53.14
2022-10-19T03:46:33.832Z,52.82
2022-10-19T03:49:01.282Z,53.22
2022-10-19T03:51:30.753Z,52.91
2022-10-19T03:54:01.718Z,52.68
2022-10-19T03:56:32.327Z,52.47
2022-10-19T03:59:02.314Z,52.43
2022-10-19T04:01:32.896Z,52.44
2022-10-19T04:04:03.684Z,51.87
2022-10-19T04:06:33.778Z,51.87
2022-10-19T04:09:02.149Z,51.78
2022-10-19T04:11:32.265Z,51.72
2022-10-19T04:14:01.204Z,51.55
2022-10-19T04:16:30.401Z,50.95
2022-10-19T04:18:58.562Z,50.59
2022-10-19T04:21:28.796Z,50.49
2022-10-19T04:24:00.131Z,50.73
2022-10-19T04:26:28.059Z,50.67
2022-10-19T04:28:58.033Z,50.41
2022-10-19T04:31:26.039Z,50.13
2022-10-19T04:33:53.386Z,50.17
2022-10-19T04:36:20.783Z,50.27
2022-10-19T04:38:48.422Z,50.17
2022-10-19T04:41:19.667Z,50.29
2022-10-19T04:43:47.959Z,50.44
2022-10-19T04:46:18.805Z,50.30
2022-10-19T04:48:48.164Z,50.08
2022-10-19T04:51:17.258Z,49.55
2022-10-19T04:53:48.014Z,49.21
2022-10-19T04:56:18.474Z,49.57
2022-10-19T04:58:47.199Z,49.40
2022-10-19T05:01:19.623Z,49.77
2022-10-19T05:03:48.277Z,49.71
2022-10-19T05:06:16.267Z,49.56
2022-10-19T05:08:43.537Z,49.21
2022-10-19T05:11:14.788Z,48.85
2022-10-19T05:13:42.686Z,48.84
2022-10-19T05:16:13.984Z,48.61
2022-10-19T05:18:42.858Z,48.74
2022-10-19T05:21:12.495Z,48.48
2022-10-19T05:23:41.821Z,48.65
2022-10-19T05:26:13.654Z,48.23
2022-10-19T05:28:41.335Z,48.20
2022-10-19T05:31:12.253Z,47.58
2022-10-19T05:33:40.735Z,47.96
2022-10-19T05:36:19.322Z,47.96
2022-10-19T05:38:49.996Z,48.09
2022-10-19T05:41:17.917Z,47.73
2022-10-19T05:43:48.089Z,47.93
2022-10-19T05:46:19.692Z,48.13
2022-10-19T05:48:48.001Z,47.82
2022-10-19T05:51:19.135Z,47.34
2022-10-19T05:53:46.913Z,47.70
2022-10-19T05:56:17.397Z,47.25
2022-10-19T05:58:44.988Z,47.51
2022-10-19T06:01:13.056Z,47.31
2022-10-19T06:03:41.054Z,47.42
2022-10-19T06:06:09.648Z,46.93
2022-10-19T06:08:39.205Z,47.12
2022-10-19T06:11:10.247Z,47.06
2022-10-19T06:13:39.281Z,47.00
2022-10-19T06:16:09.157Z,46.89
2022-10-19T06:18:37.144Z,46.79
2022-10-19T06:21:08.046Z,46.85
2022-10-19T06:23:38.419Z,47.05
2022-10-19T06:26:09.237Z,47.17
2022-10-19T06:28:39.708Z,46.85
2022-10-19T06:31:09.390Z,46.87
2022-10-19T06:33:38.814Z,46.80
2022-10-19T06:36:07.292Z,46.75
2022-10-19T06:38:34.684Z,46.77
2022-10-19T06:41:07.104Z,47.14
2022-10-19T06:43:35.753Z,46.89
2022-10-19T06:46:05.656Z,46.69
2022-10-19T06:48:33.078Z,46.83
2022-10-19T06:51:06.268Z,46.71
2022-10-19T06:53:35.248Z,46.76
2022-10-19T06:56:06.905Z,46.80
2022-10-19T06:58:36.501Z,46.73
2022-10-19T07:01:05.624Z,46.51
2022-10-19T07:03:33.208Z,46.57
2022-10-19T07:06:03.548Z,46.18
2022-10-19T07:08:33.495Z,46.42
2022-10-19T07:11:06.626Z,46.02
2022-10-19T07:13:35.386Z,46.09
2022-10-19T07:16:06.761Z,45.88
2022-10-19T07:18:36.302Z,45.84
2022-10-19T07:21:06.628Z,46.29
2022-10-19T07:23:36.385Z,45.77
2022-10-19T07:26:12.300Z,45.88
2022-10-19T07:28:40.851Z,45.70
2022-10-19T07:31:10.894Z,45.60
2022-10-19T07:33:38.514Z,45.71
2022-10-19T07:36:09.357Z,45.65
2022-10-19T07:38:37.639Z,45.56
2022-10-19T07:41:09.893Z,45.36
2022-10-19T07:43:37.292Z,45.57
2022-10-19T07:46:08.588Z,45.12
2022-10-19T07:48:37.076Z,44.89
2022-10-19T07:51:07.495Z,44.44
2022-10-19T07:53:36.279Z,44.34
2022-10-19T07:56:06.026Z,44.82
2022-10-19T07:58:36.368Z,43.74
2022-10-19T08:01:08.062Z,43.66
2022-10-19T08:04:31.785Z,44.12
2022-10-19T08:06:25.092Z,44.03
2022-10-19T08:08:53.896Z,43.87
2022-10-19T08:11:24.382Z,43.14
2022-10-19T08:13:54.152Z,42.84
2022-10-19T08:16:25.518Z,42.41
2022-10-19T08:18:57.360Z,42.97
2022-10-19T08:21:25.287Z,42.91
2022-10-19T08:23:52.555Z,42.85
2022-10-19T08:26:20.486Z,42.27
2022-10-19T08:28:48.539Z,41.98
2022-10-19T08:31:21.217Z,42.39
2022-10-19T08:33:51.020Z,42.07
2022-10-19T08:36:19.816Z,41.97
2022-10-19T08:38:48.949Z,42.28
2022-10-19T08:41:29.303Z,41.67
2022-10-19T08:44:16.550Z,41.77
2022-10-19T08:47:00.510Z,40.81
2022-10-19T08:49:32.154Z,41.29
2022-10-19T08:52:07.214Z,40.75
2022-10-19T08:57:39.783Z,41.40
2022-10-19T09:00:17.660Z,40.67
2022-10-19T09:03:03.607Z,40.94
2022-10-19T09:05:44.880Z,40.63
2022-10-19T09:08:17.571Z,40.09
2022-10-19T09:10:50.829Z,40.39
2022-10-19T09:13:41.599Z,39.67
2022-10-19T09:16:17.278Z,39.58
2022-10-19T09:18:49.710Z,38.85
2022-10-19T09:21:28.155Z,38.55
2022-10-19T09:24:08.177Z,37.81
2022-10-19T09:26:53.251Z,37.42
2022-10-19T09:29:29.749Z,37.37
2022-10-19T09:32:03.657Z,37.75
2022-10-19T09:34:37.792Z,37.96
2022-10-19T09:37:05.197Z,37.04
2022-10-19T09:39:32.941Z,36.45
2022-10-19T09:42:10.493Z,36.65
2022-10-19T09:44:38.546Z,36.24
2022-10-19T09:47:29.283Z,35.66
2022-10-19T09:50:19.108Z,36.10
2022-10-19T09:52:48.116Z,35.64
2022-10-19T09:55:28.711Z,34.59
2022-10-19T09:58:05.922Z,34.84
2022-10-19T10:00:42.803Z,35.21
2022-10-19T10:03:26.272Z,36.10
2022-10-19T10:05:58.835Z,35.84
2022-10-19T10:08:29.965Z,35.98
2022-10-19T10:11:09.179Z,35.87
2022-10-19T10:13:39.832Z,35.22
2022-10-19T10:16:14.301Z,34.75
2022-10-19T10:18:55.300Z,35.16
2022-10-19T10:21:28.777Z,35.30
2022-10-19T10:24:06.747Z,35.46
2022-10-19T10:26:40.560Z,35.73
2022-10-19T10:29:20.281Z,35.79
2022-10-19T10:31:52.196Z,36.13
2022-10-19T10:34:45.589Z,36.54
2022-10-19T10:37:23.108Z,36.34
2022-10-19T10:39:57.673Z,36.59
2022-10-19T10:42:35.128Z,36.78
2022-10-19T10:45:04.935Z,36.81
2022-10-19T10:47:32.808Z,37.37
2022-10-19T10:50:05.894Z,36.74
2022-10-19T10:52:36.692Z,36.99
2022-10-19T10:55:18.032Z,37.08
2022-10-19T10:57:51.907Z,37.23
2022-10-19T11:00:21.745Z,36.66
2022-10-19T11:02:58.758Z,34.99
2022-10-19T11:05:31.644Z,32.71
2022-10-19T11:08:15.135Z,31.13
2022-10-19T11:10:52.717Z,30.29
2022-10-19T11:13:30.985Z,30.82
2022-10-19T11:16:06.617Z,29.82
2022-10-19T11:18:40.541Z,30.73
2022-10-19T11:21:14.010Z,31.23
2022-10-19T11:23:56.915Z,30.82
2022-10-19T11:26:46.028Z,31.35
2022-10-19T11:29:39.754Z,32.60
2022-10-19T11:32:20.579Z,33.68
2022-10-19T11:35:12.264Z,34.17
2022-10-19T11:38:17.401Z,35.04
2022-10-19T11:41:13.219Z,35.51
2022-10-19T11:43:54.523Z,36.47
2022-10-19T11:46:28.682Z,36.77
2022-10-19T11:49:17.949Z,37.01
2022-10-19T11:51:57.517Z,37.24
2022-10-19T11:54:55.893Z,38.24
2022-10-19T11:57:32.776Z,38.19
2022-10-19T12:00:15.418Z,38.19
2022-10-19T12:03:49.745Z,38.96
2022-10-19T12:06:28.761Z,39.06
2022-10-19T12:09:20.274Z,38.90
2022-10-19T12:12:22.587Z,39.63
2022-10-19T12:14:56.196Z,38.99
2022-10-19T12:18:49.329Z,39.52
2022-10-19T12:21:25.518Z,39.33
2022-10-19T12:23:56.910Z,39.41
2022-10-19T12:26:27.882Z,39.07
2022-10-19T14:31:37.277Z,37.91
2022-10-19T14:34:09.180Z,38.13
2022-10-19T14:36:43.774Z,38.32
2022-10-19T14:39:25.779Z,38.54
2022-10-19T14:41:55.693Z,38.47
2022-10-19T14:44:40.728Z,39.03
2022-10-19T14:47:20.419Z,39.17
2022-10-19T14:49:48.442Z,38.80
2022-10-19T14:52:22.948Z,39.40
2022-10-19T14:54:54.754Z,39.52
2022-10-19T14:57:32.142Z,39.59
2022-10-19T15:00:06.138Z,40.01
2022-10-19T15:02:40.014Z,39.77
2022-10-19T15:05:20.265Z,40.28
2022-10-19T15:07:48.258Z,40.55
2022-10-19T15:10:22.515Z,40.63
2022-10-19T15:12:51.626Z,40.40
2022-10-19T15:15:25.583Z,40.38
2022-10-19T15:17:57.279Z,40.88
2022-10-19T15:20:28.758Z,40.47
2022-10-19T15:22:57.597Z,40.88
2022-10-19T15:25:37.043Z,40.87
2022-10-19T15:28:31.101Z,41.09
2022-10-19T15:31:00.740Z,41.00
2022-10-19T15:33:29.562Z,41.32
2022-10-19T15:36:07.771Z,41.46
2022-10-19T15:38:35.670Z,41.08
2022-10-19T15:41:04.897Z,41.56
2022-10-19T15:43:45.664Z,41.69
2022-10-19T15:46:31.905Z,41.84
2022-10-19T15:49:16.831Z,41.33
2022-10-19T15:51:45.793Z,41.88
2022-10-19T15:54:16.931Z,42.01
2022-10-19T15:56:47.092Z,41.98
2022-10-19T15:59:17.312Z,41.97
2022-10-19T16:01:51.371Z,42.10
2022-10-19T16:04:23.427Z,42.69
2022-10-19T16:06:50.524Z,42.67
2022-10-19T16:09:20.844Z,42.90
2022-10-19T16:11:48.655Z,42.88
2022-10-19T16:16:50.305Z,42.70
2022-10-19T16:19:17.329Z,43.03
2022-10-19T16:21:50.164Z,42.82
2022-10-19T16:24:17.522Z,43.25
2022-10-19T16:26:44.510Z,43.07
2022-10-19T16:29:11.426Z,43.28
2022-10-19T16:31:38.638Z,43.58
2022-10-19T16:34:05.570Z,43.68
2022-10-19T16:36:32.538Z,43.51
2022-10-19T16:39:01.388Z,43.57
2022-10-19T16:41:28.390Z,43.64
2022-10-19T16:43:56.213Z,43.77
2022-10-19T16:46:24.284Z,44.10
2022-10-19T16:48:52.072Z,44.33
2022-10-19T16:51:34.941Z,44.23
2022-10-19T16:54:05.815Z,44.08
2022-10-19T16:56:34.883Z,44.49
2022-10-19T16:59:05.972Z,44.38
2022-10-19T17:01:36.957Z,44.63
2022-10-19T17:04:18.966Z,44.86
2022-10-19T17:06:49.926Z,44.92
2022-10-19T17:12:07.627Z,45.02
2022-10-19T17:14:35.100Z,45.41
2022-10-19T17:17:02.261Z,45.33
2022-10-19T17:19:29.344Z,45.65
2022-10-19T17:21:58.892Z,45.36
2022-10-19T17:24:27.210Z,45.79
2022-10-19T17:26:54.435Z,45.70
2022-10-19T17:29:22.978Z,46.04
2022-10-19T17:31:50.627Z,45.97
2022-10-19T17:34:18.150Z,46.06
2022-10-19T17:36:46.483Z,46.08
2022-10-19T17:39:17.745Z,46.03
2022-10-19T17:41:48.451Z,46.21
2022-10-19T17:44:17.466Z,46.19
2022-10-19T17:46:44.725Z,46.52
2022-10-19T17:49:12.413Z,46.49
2022-10-19T17:51:40.840Z,47.07
2022-10-19T17:54:11.908Z,46.73
2022-10-19T17:56:40.326Z,47.00
2022-10-19T17:59:09.025Z,47.00
2022-10-19T18:01:37.050Z,47.48
2022-10-19T18:04:05.019Z,47.71
2022-10-19T18:06:34.186Z,47.68
2022-10-19T18:09:05.471Z,47.82
2022-10-19T18:11:36.939Z,48.00
2022-10-19T18:14:05.567Z,48.07
2022-10-19T18:16:37.084Z,48.29
2022-10-19T18:19:05.398Z,48.44
2022-10-19T18:21:38.401Z,48.49
2022-10-19T18:24:09.111Z,48.52
2022-10-19T18:26:39.623Z,48.35
2022-10-19T18:29:12.612Z,48.34
2022-10-19T18:31:41.769Z,48.33
2022-10-19T18:34:13.914Z,48.29
2022-10-19T18:36:41.136Z,48.25
2022-10-19T18:39:08.168Z,48.56
2022-10-19T18:41:35.158Z,48.66
2022-10-19T18:44:05.225Z,48.79
2022-10-19T18:46:35.452Z,48.62
2022-10-19T18:49:08.106Z,48.71
2022-10-19T18:51:35.843Z,48.68
2022-10-19T18:54:03.272Z,48.79
2022-10-19T18:56:30.293Z,48.86
2022-10-19T18:58:57.392Z,48.75
2022-10-19T19:01:27.182Z,48.58
2022-10-19T19:03:57.063Z,48.37
2022-10-19T19:06:29.260Z,48.48
2022-10-19T19:08:58.135Z,48.64
2022-10-19T19:11:30.650Z,48.99
2022-10-19T19:14:02.708Z,49.00
2022-10-19T19:16:34.344Z,48.90
2022-10-19T19:19:01.837Z,48.96
2022-10-19T19:21:31.999Z,48.80
2022-10-19T19:24:01.403Z,48.91
2022-10-19T19:26:32.945Z,48.67
2022-10-19T19:29:01.079Z,48.91
2022-10-19T19:31:28.083Z,48.83
2022-10-19T19:33:55.275Z,49.16
2022-10-19T19:36:22.354Z,49.18
2022-10-19T19:38:53.679Z,48.88
2022-10-19T19:41:20.885Z,48.92
2022-10-19T19:43:47.836Z,49.05
2022-10-19T19:46:18.467Z,49.16
2022-10-19T19:48:48.147Z,49.21
2022-10-19T19:51:20.920Z,49.04
2022-10-19T19:53:49.712Z,49.12
2022-10-19T19:56:17.734Z,49.03
2022-10-19T19:58:45.710Z,49.00
2022-10-19T20:01:16.362Z,49.27
2022-10-19T20:03:45.046Z,49.49
2022-10-19T20:06:13.627Z,49.64
2022-10-19T20:08:41.278Z,49.29
2022-10-19T20:11:12.783Z,49.11
2022-10-19T20:13:40.159Z,49.44
2022-10-19T20:16:09.420Z,50.00
2022-10-19T20:18:36.435Z,49.92
2022-10-19T20:21:05.260Z,50.24
2022-10-19T20:23:32.442Z,50.30
2022-10-19T20:25:59.354Z,50.19
2022-10-19T20:28:28.289Z,49.98
2022-10-19T20:31:02.927Z,49.75
2022-10-19T20:33:30.866Z,50.05
2022-10-19T20:36:02.926Z,50.18
2022-10-19T20:38:29.944Z,50.36
2022-10-19T20:40:56.865Z,50.26
2022-10-19T20:43:23.863Z,50.62
2022-10-19T20:45:52.116Z,50.58
2022-10-19T20:48:19.067Z,50.75
2022-10-19T20:50:46.003Z,50.31
2022-10-19T20:53:12.936Z,50.43
2022-10-19T20:55:39.877Z,50.67
2022-10-19T20:58:06.830Z,50.36
2022-10-19T21:00:33.821Z,50.23
2022-10-19T21:03:02.131Z,50.28
2022-10-19T21:05:29.178Z,50.59
2022-10-19T21:07:56.195Z,50.67
2022-10-19T21:10:23.148Z,50.80
2022-10-19T21:12:50.094Z,50.44
2022-10-19T21:15:17.266Z,50.24
2022-10-19T21:17:44.189Z,50.47
2022-10-19T21:20:12.475Z,50.37
2022-10-19T21:22:41.347Z,50.29
2022-10-19T21:25:10.220Z,50.37
2022-10-19T21:27:37.552Z,50.64
2022-10-19T21:30:05.914Z,50.34
2022-10-19T21:32:32.970Z,50.38
2022-10-19T21:34:59.909Z,50.32
2022-10-19T21:37:29.253Z,50.36
2022-10-19T21:39:56.264Z,50.68
2022-10-19T21:42:23.196Z,50.60
2022-10-19T21:44:54.050Z,50.95
2022-10-19T21:47:27.994Z,50.40
2022-10-19T21:49:54.969Z,50.35
2022-10-19T21:52:21.895Z,50.65
2022-10-19T21:54:50.222Z,51.05
2022-10-19T21:57:17.278Z,50.70
2022-10-19T21:59:44.240Z,50.65
2022-10-19T22:02:11.262Z,50.43
2022-10-19T22:04:38.303Z,50.42
2022-10-19T22:07:05.282Z,50.45
2022-10-19T22:09:32.234Z,50.59
2022-10-19T22:12:00.638Z,50.67
2022-10-19T22:14:27.673Z,50.67
2022-10-19T22:16:54.630Z,51.01
2022-10-19T22:19:21.541Z,51.16
2022-10-19T22:21:48.503Z,51.32
2022-10-19T22:24:15.818Z,51.19
2022-10-19T22:26:45.531Z,51.48
2022-10-19T22:29:14.429Z,51.32
2022-10-19T22:31:41.895Z,51.46
2022-10-19T22:34:13.034Z,52.04
2022-10-19T22:36:40.346Z,51.44
2022-10-19T22:39:07.660Z,51.45
2022-10-19T22:41:34.592Z,51.19
2022-10-19T22:44:01.752Z,51.26
2022-10-19T22:46:30.010Z,51.07
2022-10-19T22:48:57.776Z,51.48
2022-10-19T22:51:24.885Z,51.60
2022-10-19T22:53:51.787Z,51.68
2022-10-19T22:56:18.684Z,51.47
2022-10-19T22:58:45.594Z,51.72
2022-10-19T23:01:15.408Z,51.68
2022-10-19T23:03:44.400Z,51.92
2022-10-19T23:06:15.003Z,52.16
2022-10-19T23:08:43.307Z,52.09
2022-10-19T23:11:10.976Z,52.14
2022-10-19T23:13:37.964Z,51.63
2022-10-19T23:16:06.280Z,52.16
2022-10-19T23:18:34.938Z,51.72
2022-10-19T23:21:06.084Z,51.55
2022-10-19T23:23:35.002Z,51.93
2022-10-19T23:26:05.665Z,51.50
2022-10-19T23:28:34.769Z,51.84
2022-10-19T23:31:05.432Z,51.52
2022-10-19T23:33:33.232Z,51.66
2022-10-19T23:36:08.240Z,51.77
2022-10-19T23:38:35.756Z,51.77
2022-10-19T23:41:03.098Z,52.09
2022-10-19T23:43:31.108Z,52.26
2022-10-19T23:45:58.126Z,51.92
2022-10-19T23:48:25.346Z,51.97
2022-10-19T23:51:01.004Z,51.65
2022-10-19T23:53:34.646Z,51.60
2022-10-19T23:56:07.017Z,51.79
2022-10-19T23:58:34.669Z,51.89
